CMA CGM La Boussole — A8FZ6 — position and weather

sailwx.info

Track history (hours):
 
Tides and Currents Weather Stations Pressure Air Temp Water Temp Dewpoint Dewpoint Depression Visibility Wind Speed Wind Dir Waves Ship Positions

CMA CGM La Boussole

Last reported at 2016-May-21 07:25 UTC. Time now 2016-May-26 22:37 UTC.
Position N 09°47' W 079°04'.

Length 210.1 m; beam 30.2 m; draft 11.5 m.

Type: Cargo ship. MMSI: 636017045.

Date/timePositionNaut miles runAvg speedWind from/ knotsBaromVisibWave heightAir tempDewpointWater temp
2016-May-21 07:25N 09°47' W 079°04'1618.3
2016-May-21 06:32N 09°50' W 079°20'1818.4
2016-May-21 05:33N 09°51' W 079°38'1818.4
2016-May-21 04:33N 09°52' W 079°57'1918.8
2016-May-21 03:33N 09°53' W 080°16'  
2016-May-18 00:05N 09°41' W 080°27'610.4
2016-May-17 23:33N 09°40' W 080°21'1010.2
2016-May-17 22:33N 09°39' W 080°11'1010.2
2016-May-17 21:33N 09°37' W 080°01'1010.1
2016-May-17 20:33N 09°29' W 079°54'8 7.6
2016-May-17 19:33N 09°21' W 079°53'0 0.0
2016-May-17 18:33N 09°21' W 079°53'0 0.0
2016-May-17 17:33N 09°21' W 079°53'0 0.0
2016-May-17 16:33N 09°21' W 079°53'0 0.0
2016-May-17 15:33N 09°21' W 079°53'0 0.0
2016-May-17 14:33N 09°21' W 079°53'0 0.0
2016-May-17 13:33N 09°21' W 079°53'0 0.0
2016-May-17 12:33N 09°21' W 079°53'0 0.0
2016-May-17 11:33N 09°21' W 079°53'2 2.4
2016-May-17 10:33N 09°24' W 079°54'9 8.5
2016-May-17 09:33N 09°32' W 079°52'1111.4
2016-May-17 08:33N 09°43' W 079°48'1212.4
2016-May-17 07:33N 09°47' W 079°36'1212.4
2016-May-17 06:33N 09°48' W 079°24'  
2016-May-14 02:30N 15°52' W 061°49'1919.0
2016-May-14 01:31N 16°01' W 061°31'1111.9
2016-May-14 00:34N 16°12' W 061°32'2 1.6
2016-May-13 23:28N 16°14' W 061°33'0 0.0
2016-May-13 22:28N 16°14' W 061°33'0 0.0
2016-May-13 21:31N 16°14' W 061°33'0 0.0
2016-May-13 20:31N 16°14' W 061°33'0 0.0
2016-May-13 19:31N 16°14' W 061°33'0 0.0
2016-May-13 18:10N 16°14' W 061°33'0 0.0
2016-May-13 17:31N 16°14' W 061°33'0 0.0
2016-May-13 16:31N 16°14' W 061°33'0 0.0
2016-May-13 15:31N 16°14' W 061°33'0 0.0
2016-May-13 14:31N 16°14' W 061°33'0 0.0
2016-May-13 13:31N 16°14' W 061°33'0 0.0
2016-May-13 12:25N 16°14' W 061°33'0 0.0
2016-May-13 11:31N 16°14' W 061°33'0 0.0
2016-May-13 10:31N 16°14' W 061°33'0 0.0
2016-May-13 09:33N 16°14' W 061°33'6 5.6
2016-May-13 08:32N 16°09' W 061°30'  
Track history (hours):
 
Tides and Currents Weather Stations Pressure Air Temp Water Temp Dewpoint Dewpoint Depression Visibility Wind Speed Wind Dir Waves Ship Positions

CMA CGM La Boussole

Last reported at 2016-May-21 07:25 UTC. Time now 2016-May-26 22:37 UTC.
Position N 09°47' W 079°04'.

Length 210.1 m; beam 30.2 m; draft 11.5 m.

Type: Cargo ship. MMSI: 636017045.

Date/timePositionNaut miles runAvg speedWind from/ knotsBaromVisibWave heightAir tempDewpointWater temp
2016-May-21 07:25N 09°47' W 079°04'1618.3
2016-May-21 06:32N 09°50' W 079°20'1818.4
2016-May-21 05:33N 09°51' W 079°38'1818.4
2016-May-21 04:33N 09°52' W 079°57'1918.8
2016-May-21 03:33N 09°53' W 080°16'  
2016-May-18 00:05N 09°41' W 080°27'610.4
2016-May-17 23:33N 09°40' W 080°21'1010.2
2016-May-17 22:33N 09°39' W 080°11'1010.2
2016-May-17 21:33N 09°37' W 080°01'1010.1
2016-May-17 20:33N 09°29' W 079°54'8 7.6
2016-May-17 19:33N 09°21' W 079°53'0 0.0
2016-May-17 18:33N 09°21' W 079°53'0 0.0
2016-May-17 17:33N 09°21' W 079°53'0 0.0
2016-May-17 16:33N 09°21' W 079°53'0 0.0
2016-May-17 15:33N 09°21' W 079°53'0 0.0
2016-May-17 14:33N 09°21' W 079°53'0 0.0
2016-May-17 13:33N 09°21' W 079°53'0 0.0
2016-May-17 12:33N 09°21' W 079°53'0 0.0
2016-May-17 11:33N 09°21' W 079°53'2 2.4
2016-May-17 10:33N 09°24' W 079°54'9 8.5
2016-May-17 09:33N 09°32' W 079°52'1111.4
2016-May-17 08:33N 09°43' W 079°48'1212.4
2016-May-17 07:33N 09°47' W 079°36'1212.4
2016-May-17 06:33N 09°48' W 079°24'  
2016-May-14 02:30N 15°52' W 061°49'1919.0
2016-May-14 01:31N 16°01' W 061°31'1111.9
2016-May-14 00:34N 16°12' W 061°32'2 1.6
2016-May-13 23:28N 16°14' W 061°33'0 0.0
2016-May-13 22:28N 16°14' W 061°33'0 0.0
2016-May-13 21:31N 16°14' W 061°33'0 0.0
2016-May-13 20:31N 16°14' W 061°33'0 0.0
2016-May-13 19:31N 16°14' W 061°33'0 0.0
2016-May-13 18:10N 16°14' W 061°33'0 0.0
2016-May-13 17:31N 16°14' W 061°33'0 0.0
2016-May-13 16:31N 16°14' W 061°33'0 0.0
2016-May-13 15:31N 16°14' W 061°33'0 0.0
2016-May-13 14:31N 16°14' W 061°33'0 0.0
2016-May-13 13:31N 16°14' W 061°33'0 0.0
2016-May-13 12:25N 16°14' W 061°33'0 0.0
2016-May-13 11:31N 16°14' W 061°33'0 0.0
2016-May-13 10:31N 16°14' W 061°33'0 0.0
2016-May-13 09:33N 16°14' W 061°33'6 5.6
2016-May-13 08:32N 16°09' W 061°30'  

Dump ship's entire track history